createdAt,value
2022-12-01T00:02:30.054Z,4.28
2022-12-01T00:05:32.567Z,4.24
2022-12-01T00:08:34.840Z,4.17
2022-12-01T00:11:38.758Z,4.11
2022-12-01T00:14:40.997Z,4.18
2022-12-01T00:17:45.406Z,4.24
2022-12-01T00:20:51.067Z,4.25
2022-12-01T00:23:55.660Z,4.25
2022-12-01T00:26:57.890Z,4.12
2022-12-01T00:30:00.189Z,4.26
2022-12-01T00:33:02.416Z,4.21
2022-12-01T00:36:05.632Z,4.17
2022-12-01T00:39:08.156Z,4.21
2022-12-01T00:42:13.373Z,4.15
2022-12-01T00:45:16.005Z,4.28
2022-12-01T00:48:18.673Z,4.15
2022-12-01T00:51:20.888Z,4.19
2022-12-01T00:54:23.225Z,4.28
2022-12-01T00:57:25.469Z,4.25
2022-12-01T01:00:27.831Z,4.22
2022-12-01T01:03:32.440Z,4.31
2022-12-01T01:06:34.758Z,4.24
2022-12-01T01:09:37.146Z,4.22
2022-12-01T01:12:39.382Z,4.24
2022-12-01T01:15:41.766Z,4.24
2022-12-01T01:18:44.602Z,4.18
2022-12-01T01:21:46.839Z,4.18
2022-12-01T01:24:49.123Z,4.15
2022-12-01T01:27:51.755Z,4.11
2022-12-01T01:30:55.169Z,4.12
2022-12-01T01:33:58.483Z,4.18
2022-12-01T01:37:00.773Z,4.18
2022-12-01T01:40:03.257Z,4.21
2022-12-01T01:43:15.205Z,4.28
2022-12-01T01:46:23.313Z,4.19
2022-12-01T01:49:25.592Z,4.14
2022-12-01T01:52:28.399Z,4.19
2022-12-01T01:55:33.774Z,4.18
2022-12-01T01:58:38.082Z,4.24
2022-12-01T02:01:40.439Z,4.12
2022-12-01T02:04:47.476Z,4.02
2022-12-01T02:07:51.982Z,4.04
2022-12-01T02:11:12.193Z,4.02
2022-12-01T02:14:42.280Z,4.01
2022-12-01T02:17:47.451Z,4.12
2022-12-01T02:21:35.552Z,4.14
2022-12-01T02:25:02.223Z,4.14
2022-12-01T02:28:53.251Z,4.04
2022-12-01T02:32:23.031Z,4.07
2022-12-01T02:35:36.624Z,3.95
2022-12-01T02:38:47.333Z,3.85
2022-12-01T02:42:04.884Z,3.94
2022-12-01T02:45:14.075Z,3.87
2022-12-01T02:48:26.806Z,3.80
2022-12-01T02:51:32.434Z,3.90
2022-12-01T02:54:35.985Z,3.97
2022-12-01T02:57:38.217Z,3.94
2022-12-01T03:00:42.335Z,4.04
2022-12-01T03:03:50.864Z,4.09
2022-12-01T03:07:27.213Z,3.94
2022-12-01T03:10:41.179Z,3.84
2022-12-01T03:13:46.900Z,3.87
2022-12-01T03:16:54.225Z,3.85
2022-12-01T03:20:04.909Z,3.94
2022-12-01T03:23:16.374Z,3.97
2022-12-01T03:26:21.798Z,3.91
2022-12-01T03:29:40.052Z,4.04
2022-12-01T03:32:49.539Z,4.05
2022-12-01T03:36:01.996Z,4.05
2022-12-01T03:39:08.824Z,3.95
2022-12-01T03:42:20.827Z,3.90
2022-12-01T03:45:44.110Z,3.88
2022-12-01T03:48:46.731Z,3.98
2022-12-01T03:52:06.827Z,3.97
2022-12-01T03:55:24.055Z,3.98
2022-12-01T03:58:38.960Z,4.04
2022-12-01T04:01:41.379Z,4.01
2022-12-01T04:04:43.908Z,4.04
2022-12-01T04:07:46.200Z,3.98
2022-12-01T04:10:48.538Z,3.81
2022-12-01T04:13:50.760Z,3.90
2022-12-01T04:16:53.204Z,3.85
2022-12-01T04:19:55.760Z,3.81
2022-12-01T04:22:57.971Z,3.83
2022-12-01T04:26:04.937Z,3.80
2022-12-01T04:29:09.894Z,3.78
2022-12-01T04:32:12.764Z,3.78
2022-12-01T04:35:15.052Z,3.71
2022-12-01T04:38:17.322Z,3.70
2022-12-01T04:41:19.730Z,3.70
2022-12-01T04:44:21.959Z,3.77
2022-12-01T04:47:24.177Z,3.73
2022-12-01T04:50:26.363Z,3.77
2022-12-01T04:53:28.908Z,3.71
2022-12-01T04:56:31.263Z,3.77
2022-12-01T04:59:33.470Z,3.83
2022-12-01T05:02:35.695Z,3.67
2022-12-01T05:05:38.126Z,3.66
2022-12-01T05:08:40.929Z,3.69
2022-12-01T05:11:43.185Z,3.67
2022-12-01T05:14:46.070Z,3.69
2022-12-01T05:17:48.387Z,3.70
2022-12-01T05:20:59.280Z,3.60
2022-12-01T05:24:01.533Z,3.62
2022-12-01T05:27:03.856Z,3.67
2022-12-01T05:30:06.814Z,3.66
2022-12-01T05:33:09.091Z,3.73
2022-12-01T05:36:11.555Z,3.70
2022-12-01T05:39:13.895Z,3.69
2022-12-01T05:42:16.052Z,3.66
2022-12-01T05:45:18.247Z,3.71
2022-12-01T05:48:20.486Z,3.71
2022-12-01T05:51:22.671Z,3.67
2022-12-01T05:54:24.871Z,3.70
2022-12-01T05:57:27.086Z,3.70
2022-12-01T06:00:29.620Z,3.64
2022-12-01T06:03:31.918Z,3.56
2022-12-01T06:06:34.139Z,3.50
2022-12-01T06:09:36.336Z,3.37
2022-12-01T06:12:39.093Z,3.46
2022-12-01T06:15:41.411Z,3.59
2022-12-01T06:18:43.708Z,3.49
2022-12-01T06:21:45.969Z,3.47
2022-12-01T06:24:48.218Z,3.44
2022-12-01T06:27:50.448Z,3.47
2022-12-01T06:30:55.413Z,3.47
2022-12-01T06:34:00.148Z,3.50
2022-12-01T06:37:02.425Z,3.36
2022-12-01T06:40:05.298Z,3.49
2022-12-01T06:43:07.592Z,3.50
2022-12-01T06:46:09.966Z,3.33
2022-12-01T06:49:12.798Z,3.35
2022-12-01T06:52:15.396Z,3.26
2022-12-01T06:55:17.908Z,3.33
2022-12-01T06:58:23.230Z,3.36
2022-12-01T07:01:27.422Z,3.39
2022-12-01T07:04:32.558Z,3.35
2022-12-01T07:07:39.852Z,3.37
2022-12-01T07:10:42.360Z,3.54
2022-12-01T07:13:50.458Z,3.40
2022-12-01T07:16:53.242Z,3.44
2022-12-01T07:19:55.871Z,3.44
2022-12-01T07:22:58.111Z,3.42
2022-12-01T07:26:11.324Z,3.50
2022-12-01T07:29:14.139Z,3.50
2022-12-01T07:32:16.427Z,3.62
2022-12-01T07:35:18.912Z,3.88
2022-12-01T07:38:22.443Z,4.14
2022-12-01T07:41:24.843Z,4.14
2022-12-01T07:44:27.216Z,4.32
2022-12-01T07:47:29.552Z,4.38
2022-12-01T07:50:32.219Z,4.44
2022-12-01T07:53:35.420Z,4.46
2022-12-01T07:56:39.855Z,4.48
2022-12-01T07:59:42.104Z,4.44
2022-12-01T08:02:44.487Z,4.56
2022-12-01T08:05:57.293Z,4.49
2022-12-01T08:08:59.705Z,4.56
2022-12-01T08:12:02.092Z,4.70
2022-12-01T08:15:06.055Z,4.79
2022-12-01T08:18:11.769Z,4.80
2022-12-01T08:21:17.690Z,4.93
2022-12-01T08:24:20.002Z,4.83
2022-12-01T08:27:22.515Z,4.79
2022-12-01T08:30:27.793Z,4.86
2022-12-01T08:33:32.845Z,4.93
2022-12-01T08:36:35.575Z,5.10
2022-12-01T08:39:37.820Z,5.10
2022-12-01T08:42:40.075Z,5.27
2022-12-01T08:45:42.344Z,5.38
2022-12-01T08:48:44.593Z,5.44
2022-12-01T08:51:46.956Z,5.58
2022-12-01T08:54:49.295Z,5.75
2022-12-01T08:57:51.675Z,6.03
2022-12-01T09:00:56.494Z,6.21
2022-12-01T09:04:08.477Z,6.29
2022-12-01T09:07:12.119Z,6.23
2022-12-01T09:10:14.440Z,6.37
2022-12-01T09:13:16.694Z,6.45
2022-12-01T09:16:19.186Z,6.31
2022-12-01T09:19:24.568Z,6.37
2022-12-01T09:22:27.523Z,6.55
2022-12-01T09:25:30.955Z,6.87
2022-12-01T09:28:33.339Z,6.95
2022-12-01T09:31:36.626Z,6.87
2022-12-01T09:34:38.828Z,6.96
2022-12-01T09:37:42.250Z,7.03
2022-12-01T09:40:47.158Z,7.19
2022-12-01T09:44:24.367Z,7.35
2022-12-01T09:47:26.777Z,7.42
2022-12-01T09:50:30.412Z,7.71
2022-12-01T09:53:33.417Z,7.95
2022-12-01T09:56:53.173Z,8.07
2022-12-01T09:59:58.907Z,8.45
2022-12-01T10:03:27.740Z,9.06
2022-12-01T10:06:38.578Z,9.10
2022-12-01T10:09:58.233Z,10.47
2022-12-01T10:13:00.743Z,12.07
2022-12-01T10:16:11.379Z,13.13
2022-12-01T10:19:23.963Z,12.81
2022-12-01T10:22:32.475Z,12.35
2022-12-01T10:25:46.716Z,11.87
2022-12-01T10:29:10.702Z,10.46
2022-12-01T10:32:23.484Z,9.92
2022-12-01T10:35:37.080Z,9.27
2022-12-01T10:38:39.485Z,8.96
2022-12-01T10:41:43.298Z,8.38
2022-12-01T10:44:46.123Z,8.05
2022-12-01T10:48:08.779Z,8.08
2022-12-01T10:51:16.780Z,8.26
2022-12-01T10:54:20.516Z,8.08
2022-12-01T10:57:23.751Z,8.14
2022-12-01T11:04:35.386Z,9.14
2022-12-01T11:07:48.340Z,9.17
2022-12-01T11:10:51.152Z,9.21
2022-12-01T11:13:54.304Z,9.31
2022-12-01T11:16:56.613Z,9.38
2022-12-01T11:20:00.349Z,9.37
2022-12-01T11:23:27.093Z,10.19
2022-12-01T11:26:34.178Z,11.00
2022-12-01T11:29:40.213Z,11.33
2022-12-01T11:32:55.823Z,13.94
2022-12-01T11:35:58.567Z,16.87
2022-12-01T11:39:04.383Z,18.55
2022-12-01T11:42:27.810Z,18.76
2022-12-01T11:45:33.865Z,19.33
2022-12-01T11:48:36.941Z,20.01
2022-12-01T11:51:39.453Z,19.60
2022-12-01T11:54:55.776Z,19.10
2022-12-01T11:58:01.789Z,18.41
2022-12-01T12:01:06.560Z,17.67
2022-12-01T12:04:46.282Z,18.00
2022-12-01T12:08:30.567Z,19.04
2022-12-01T12:12:08.077Z,19.71
2022-12-01T12:15:31.186Z,19.23
2022-12-01T12:18:42.671Z,18.96
2022-12-01T12:22:22.203Z,19.94
2022-12-01T12:25:49.714Z,19.55
2022-12-01T12:29:00.800Z,19.91
2022-12-01T12:32:49.316Z,17.65
2022-12-01T12:36:20.630Z,16.00
2022-12-01T12:39:58.316Z,16.20
2022-12-01T12:43:04.017Z,17.71
2022-12-01T12:46:07.717Z,19.28
2022-12-01T12:49:20.509Z,19.31
2022-12-01T12:52:28.939Z,18.63
2022-12-01T12:55:43.297Z,17.30
2022-12-01T12:58:58.289Z,16.03
2022-12-01T13:02:33.125Z,14.37
2022-12-01T13:05:43.884Z,13.75
2022-12-01T13:08:56.160Z,13.37
2022-12-01T13:12:07.290Z,13.12
2022-12-01T13:15:18.036Z,12.13
2022-12-01T13:19:07.304Z,12.88
2022-12-01T13:22:18.988Z,12.16
2022-12-01T13:25:32.892Z,11.84
2022-12-01T13:28:46.316Z,11.43
2022-12-01T13:31:52.449Z,11.12
2022-12-01T13:34:54.824Z,10.54
2022-12-01T13:38:22.110Z,10.39
2022-12-01T13:41:39.819Z,10.49
2022-12-01T13:44:45.091Z,10.28
2022-12-01T13:47:47.265Z,9.74
2022-12-01T13:51:00.191Z,9.41
2022-12-01T13:54:26.719Z,8.97
2022-12-01T13:57:33.091Z,8.39
2022-12-01T14:00:41.743Z,7.97
2022-12-01T14:03:57.003Z,7.75
2022-12-01T14:07:16.921Z,7.88
2022-12-01T14:10:32.754Z,7.66
2022-12-01T14:13:51.923Z,7.39
2022-12-01T14:16:59.335Z,7.15
2022-12-01T14:20:22.991Z,6.87
2022-12-01T14:23:36.827Z,6.67
2022-12-01T14:26:45.353Z,6.65
2022-12-01T14:29:47.789Z,6.43
2022-12-01T14:32:50.075Z,6.34
2022-12-01T14:35:59.083Z,6.05
2022-12-01T14:39:42.828Z,5.59
2022-12-01T14:43:08.424Z,5.42
2022-12-01T14:46:12.472Z,5.34
2022-12-01T14:49:22.005Z,5.24
2022-12-01T14:52:26.920Z,5.08
2022-12-01T14:55:38.455Z,4.81
2022-12-01T14:59:00.554Z,4.73
2022-12-01T15:02:09.189Z,4.59
2022-12-01T15:05:15.721Z,4.45
2022-12-01T15:08:42.062Z,4.45
2022-12-01T15:11:58.772Z,4.44
2022-12-01T15:15:01.081Z,4.34
2022-12-01T15:18:21.336Z,4.25
2022-12-01T15:21:28.073Z,4.17
2022-12-01T15:24:31.069Z,4.11
2022-12-01T15:27:33.427Z,3.99
2022-12-01T15:30:37.203Z,4.02
2022-12-01T15:33:50.582Z,4.02
2022-12-01T15:36:53.717Z,3.98
2022-12-01T15:43:41.328Z,3.77
2022-12-01T15:46:44.393Z,3.66
2022-12-01T15:49:49.899Z,3.70
2022-12-01T15:52:52.395Z,3.59
2022-12-01T15:55:59.116Z,3.57
2022-12-01T15:59:12.230Z,3.66
2022-12-01T16:02:32.688Z,3.57
2022-12-01T16:05:36.503Z,3.47
2022-12-01T16:08:57.366Z,3.37
2022-12-01T16:12:18.097Z,3.46
2022-12-01T16:15:22.985Z,3.49
2022-12-01T16:18:33.130Z,3.27
2022-12-01T16:22:01.082Z,3.26
2022-12-01T16:25:03.736Z,3.33
2022-12-01T16:28:07.792Z,3.49
2022-12-01T16:31:18.993Z,3.49
2022-12-01T16:34:44.756Z,3.30
2022-12-01T16:37:44.834Z,3.27
2022-12-01T16:40:52.312Z,3.27
2022-12-01T16:44:12.836Z,3.49
2022-12-01T16:47:16.645Z,3.50
2022-12-01T16:50:20.927Z,3.42
2022-12-01T16:53:23.135Z,3.44
2022-12-01T16:56:25.767Z,3.47
2022-12-01T16:59:28.050Z,3.46
2022-12-01T17:02:30.457Z,3.43
2022-12-01T17:05:33.934Z,3.42
2022-12-01T17:08:36.339Z,3.49
2022-12-01T17:11:39.315Z,3.62
2022-12-01T17:14:41.592Z,3.59
2022-12-01T17:17:43.923Z,3.43
2022-12-01T17:20:55.661Z,3.46
2022-12-01T17:23:57.888Z,3.54
2022-12-01T17:27:00.847Z,3.47
2022-12-01T17:30:03.845Z,3.42
2022-12-01T17:33:06.099Z,3.37
2022-12-01T17:36:11.671Z,3.29
2022-12-01T17:39:14.940Z,3.36
2022-12-01T17:42:17.238Z,3.26
2022-12-01T17:45:19.668Z,3.11
2022-12-01T17:48:21.851Z,3.09
2022-12-01T17:51:24.136Z,3.01
2022-12-01T17:54:26.355Z,2.75
2022-12-01T17:57:28.639Z,2.66
2022-12-01T18:00:31.536Z,2.68
2022-12-01T18:03:33.788Z,2.57
2022-12-01T18:06:36.229Z,2.40
2022-12-01T18:09:38.635Z,2.26
2022-12-01T18:12:40.841Z,2.47
2022-12-01T18:15:43.135Z,2.34
2022-12-01T18:18:45.534Z,2.27
2022-12-01T18:21:47.915Z,2.22
2022-12-01T18:24:50.342Z,2.23
2022-12-01T18:27:58.286Z,2.23
2022-12-01T18:31:11.666Z,2.38
2022-12-01T18:34:14.064Z,2.47
2022-12-01T18:37:16.355Z,2.47
2022-12-01T18:40:18.604Z,2.43
2022-12-01T18:43:20.811Z,2.41
2022-12-01T18:46:23.518Z,2.40
2022-12-01T18:49:25.836Z,2.34
2022-12-01T18:52:28.095Z,2.50
2022-12-01T18:55:30.284Z,2.50
2022-12-01T18:58:33.040Z,2.57
2022-12-01T19:01:39.897Z,2.40
2022-12-01T19:04:42.552Z,2.19
2022-12-01T19:07:44.917Z,2.00
2022-12-01T19:11:01.438Z,1.86
2022-12-01T19:14:03.959Z,1.87
2022-12-01T19:17:06.291Z,1.93
2022-12-01T19:20:09.064Z,1.83
2022-12-01T19:23:12.038Z,1.95
2022-12-01T19:26:16.994Z,1.95
2022-12-01T19:29:19.435Z,1.86
2022-12-01T19:32:21.720Z,1.86
2022-12-01T19:35:24.719Z,2.03
2022-12-01T19:38:26.959Z,2.09
2022-12-01T19:41:29.480Z,2.13
2022-12-01T19:44:31.761Z,2.17
2022-12-01T19:47:34.919Z,2.10
2022-12-01T19:50:37.166Z,2.03
2022-12-01T19:53:39.436Z,1.98
2022-12-01T19:56:42.035Z,2.05
2022-12-01T19:59:44.682Z,2.02
2022-12-01T20:02:46.969Z,2.09
2022-12-01T20:05:49.243Z,2.05
2022-12-01T20:08:52.168Z,2.02
2022-12-01T20:11:54.439Z,2.06
2022-12-01T20:14:56.697Z,2.09
2022-12-01T20:17:58.932Z,2.10
2022-12-01T20:21:05.977Z,2.10
2022-12-01T20:24:11.976Z,2.23
2022-12-01T20:27:14.187Z,2.27
2022-12-01T20:30:16.600Z,2.26
2022-12-01T20:33:18.789Z,2.27
2022-12-01T20:36:21.987Z,2.29
2022-12-01T20:39:25.189Z,2.27
2022-12-01T20:42:27.637Z,2.16
2022-12-01T20:45:29.920Z,2.24
2022-12-01T20:48:32.491Z,2.14
2022-12-01T20:51:34.915Z,2.17
2022-12-01T20:54:37.212Z,2.23
2022-12-01T20:57:39.426Z,2.22
2022-12-01T21:00:44.401Z,2.16
2022-12-01T21:03:46.692Z,1.66
2022-12-01T21:06:50.105Z,1.37
2022-12-01T21:09:52.398Z,1.40
2022-12-01T21:13:23.127Z,1.11
2022-12-01T21:16:33.073Z,1.20
2022-12-01T21:19:47.178Z,1.26
2022-12-01T21:22:50.383Z,1.42
2022-12-01T21:25:52.800Z,1.47
2022-12-01T21:28:59.446Z,1.56
2022-12-01T21:32:11.611Z,1.59
2022-12-01T21:35:18.356Z,1.61
2022-12-01T21:38:22.224Z,1.59
2022-12-01T21:41:27.514Z,1.63
2022-12-01T21:44:36.007Z,1.59
2022-12-01T21:47:38.352Z,1.55
2022-12-01T21:50:40.654Z,1.56
2022-12-01T21:53:42.948Z,1.49
2022-12-01T21:56:45.626Z,1.51
2022-12-01T21:59:48.440Z,1.47
2022-12-01T22:03:08.556Z,1.55
2022-12-01T22:06:29.848Z,1.54
2022-12-01T22:09:36.666Z,1.66
2022-12-01T22:12:38.828Z,1.75
2022-12-01T22:15:41.906Z,1.93
2022-12-01T22:18:52.815Z,2.00
2022-12-01T22:22:00.852Z,2.06
2022-12-01T22:25:32.556Z,2.13
2022-12-01T22:28:35.116Z,2.16
2022-12-01T22:31:37.287Z,2.20
2022-12-01T22:34:42.563Z,2.38
2022-12-01T22:37:47.063Z,2.48
2022-12-01T22:40:49.316Z,2.41
2022-12-01T22:43:56.067Z,2.38
2022-12-01T22:47:02.120Z,2.30
2022-12-01T22:50:31.349Z,2.40
2022-12-01T22:53:33.582Z,2.48
2022-12-01T22:56:39.737Z,2.45
2022-12-01T22:59:43.930Z,2.48
2022-12-01T23:02:48.433Z,2.65
2022-12-01T23:05:56.472Z,2.62
2022-12-01T23:08:58.644Z,2.55
2022-12-01T23:12:09.722Z,2.51
2022-12-01T23:15:25.252Z,2.70
2022-12-01T23:18:34.168Z,2.65
2022-12-01T23:21:36.873Z,2.71
2022-12-01T23:24:40.107Z,2.66
2022-12-01T23:27:44.077Z,2.72
2022-12-01T23:30:49.421Z,2.71
2022-12-01T23:33:51.742Z,2.77
2022-12-01T23:36:54.380Z,2.75
2022-12-01T23:39:56.907Z,2.74
2022-12-01T23:43:11.831Z,2.77
2022-12-01T23:46:17.913Z,2.72
2022-12-01T23:49:24.327Z,2.77
2022-12-01T23:52:33.662Z,2.84
2022-12-01T23:55:37.020Z,2.77
2022-12-01T23:58:39.208Z,2.75
